Time;durP1;ratioP1;P1;durP2;ratioP2;P2;SDS_P1;SDS_P2;PMS_P1;PMS_P2;Temp;Humidity;BMP_temperature;BMP_pressure;BME280_temperature;BME280_humidity;BME280_pressure;Samples;Min_cycle;Max_cycle;Signal;HPM_P1;HPM_P2
2021/01/27 00:00:58;;;;;;;1.30;1.20;;;24.20;66.50;;;;;;5034559;28;20791;-64
2021/01/27 00:03:24;;;;;;;1.60;1.23;;;24.20;66.30;;;;;;5034182;28;21001;-64
2021/01/27 00:05:52;;;;;;;1.60;1.40;;;24.20;66.50;;;;;;5034466;28;20547;-64
2021/01/27 00:08:20;;;;;;;1.53;1.40;;;24.20;66.20;;;;;;5034424;28;20451;-64
2021/01/27 00:10:47;;;;;;;1.50;1.30;;;24.20;66.20;;;;;;5034389;28;20511;-64
2021/01/27 00:13:17;;;;;;;1.40;1.30;;;24.20;66.20;;;;;;5034369;28;20472;-64
2021/01/27 00:15:44;;;;;;;1.33;1.23;;;24.20;66.20;;;;;;5034403;28;20466;-64
2021/01/27 00:18:13;;;;;;;1.50;1.40;;;24.20;66.00;;;;;;5034331;28;20448;-63
2021/01/27 00:20:39;;;;;;;1.30;1.20;;;24.20;66.20;;;;;;5034279;28;20440;-64
2021/01/27 00:23:06;;;;;;;1.50;1.40;;;24.20;65.90;;;;;;5033833;28;20499;-63
2021/01/27 00:25:37;;;;;;;1.83;1.57;;;24.20;66.50;;;;;;5034190;28;20537;-63
2021/01/27 00:28:05;;;;;;;1.70;1.60;;;24.20;66.20;;;;;;5034440;28;20533;-63
2021/01/27 00:30:33;;;;;;;1.30;1.20;;;24.20;66.10;;;;;;5034054;28;20471;-63
2021/01/27 00:33:00;;;;;;;1.43;1.33;;;24.20;65.80;;;;;;5034046;28;20774;-63
2021/01/27 00:35:29;;;;;;;1.30;1.20;;;24.20;65.90;;;;;;5033979;28;20796;-63
2021/01/27 00:37:56;;;;;;;1.40;1.30;;;24.30;65.70;;;;;;5033605;28;20447;-63
2021/01/27 00:40:23;;;;;;;1.40;1.30;;;24.20;65.90;;;;;;5033229;28;20454;-63
2021/01/27 00:42:51;;;;;;;1.60;1.50;;;24.20;65.60;;;;;;5033777;28;20851;-63
2021/01/27 00:45:18;;;;;;;1.40;1.30;;;24.20;65.90;;;;;;5033853;28;20850;-64
2021/01/27 00:47:45;;;;;;;1.40;1.30;;;24.10;65.50;;;;;;5033776;28;20448;-64
2021/01/27 00:50:14;;;;;;;1.33;1.13;;;24.20;65.50;;;;;;5033796;28;20446;-64
2021/01/27 00:52:40;;;;;;;1.10;1.00;;;24.10;65.60;;;;;;5033705;28;20436;-63
2021/01/27 00:55:11;;;;;;;1.40;1.30;;;24.10;65.40;;;;;;5033480;28;20985;-64
2021/01/27 00:57:38;;;;;;;1.50;1.30;;;24.10;65.70;;;;;;5033467;28;20435;-64
2021/01/27 01:00:09;;;;;;;1.30;1.20;;;24.10;65.20;;;;;;5033356;28;20449;-63
2021/01/27 01:02:39;;;;;;;1.27;1.17;;;24.10;65.40;;;;;;5033571;28;20478;-64
2021/01/27 01:05:08;;;;;;;1.27;1.10;;;24.10;65.20;;;;;;5033615;28;20787;-64
2021/01/27 01:07:34;;;;;;;1.20;1.00;;;24.10;65.20;;;;;;5033541;28;20513;-64
2021/01/27 01:10:00;;;;;;;1.30;1.20;;;24.10;64.90;;;;;;5033279;28;20463;-64
2021/01/27 01:12:26;;;;;;;1.30;1.10;;;24.10;65.00;;;;;;5033574;28;20445;-63
2021/01/27 01:14:52;;;;;;;1.20;1.00;;;24.10;65.00;;;;;;5033497;28;20441;-64
2021/01/27 01:17:20;;;;;;;1.50;1.37;;;24.10;65.00;;;;;;5033444;28;20447;-64
2021/01/27 01:19:46;;;;;;;1.20;1.10;;;24.10;65.00;;;;;;5033201;28;20497;-63
2021/01/27 01:22:12;;;;;;;1.40;1.30;;;24.10;65.10;;;;;;5033122;28;20483;-63
2021/01/27 01:24:38;;;;;;;1.10;0.97;;;24.10;65.00;;;;;;5033443;28;20444;-64
2021/01/27 01:27:05;;;;;;;1.53;1.10;;;24.10;64.80;;;;;;5033148;28;20475;-64
2021/01/27 01:29:32;;;;;;;1.40;1.20;;;24.10;64.70;;;;;;5033424;28;20474;-60
2021/01/27 01:31:58;;;;;;;1.30;1.10;;;24.10;65.00;;;;;;5033097;28;20453;-63
2021/01/27 01:34:25;;;;;;;1.37;1.27;;;24.10;64.80;;;;;;5033047;28;20942;-63
2021/01/27 01:36:51;;;;;;;1.17;1.00;;;24.10;64.60;;;;;;5033389;28;20593;-63
2021/01/27 01:39:18;;;;;;;1.93;1.23;;;24.10;64.80;;;;;;5033315;28;20467;-64
2021/01/27 01:41:44;;;;;;;1.20;1.10;;;24.10;64.60;;;;;;5033202;28;20847;-63
2021/01/27 01:44:10;;;;;;;1.13;1.00;;;24.10;64.60;;;;;;5033283;28;20855;-63
2021/01/27 01:46:36;;;;;;;1.20;1.10;;;24.10;64.50;;;;;;5033286;28;20812;-64
2021/01/27 01:49:05;;;;;;;1.30;1.20;;;24.00;64.40;;;;;;5033245;28;20799;-64
2021/01/27 01:51:37;;;;;;;1.37;1.27;;;24.10;64.40;;;;;;5034165;28;20942;-63
2021/01/27 01:54:09;;;;;;;1.20;1.10;;;24.10;64.40;;;;;;5036974;28;20428;-63
2021/01/27 01:56:38;;;;;;;1.07;0.97;;;24.10;64.20;;;;;;5036923;28;20487;-63
2021/01/27 01:59:09;;;;;;;1.30;1.20;;;24.00;64.10;;;;;;5036877;28;20444;-63
2021/01/27 02:01:36;;;;;;;1.20;1.00;;;24.00;63.90;;;;;;5036841;28;20479;-64
2021/01/27 02:04:03;;;;;;;1.40;1.27;;;24.00;64.10;;;;;;5037588;28;20493;-63
2021/01/27 02:06:29;;;;;;;1.90;1.33;;;24.00;64.00;;;;;;5036776;28;20448;-64
2021/01/27 02:08:58;;;;;;;1.57;1.33;;;24.00;63.80;;;;;;5036688;28;20448;-63
2021/01/27 02:11:38;;;;;;;1.30;1.10;;;24.00;63.70;;;;;;5036702;28;20451;-64
2021/01/27 02:14:20;;;;;;;1.30;1.20;;;24.00;63.70;;;;;;5036655;28;20485;-64
2021/01/27 02:16:51;;;;;;;1.20;1.10;;;24.00;63.70;;;;;;5036585;28;20436;-63
2021/01/27 02:19:56;;;;;;;1.47;1.10;;;24.00;63.60;;;;;;5036454;28;20436;-63
2021/01/27 02:22:53;;;;;;;1.37;1.27;;;24.00;63.70;;;;;;5036462;28;20480;-64
2021/01/27 02:25:52;;;;;;;1.10;1.00;;;24.00;63.60;;;;;;5036120;28;20521;-63
2021/01/27 02:28:44;;;;;;;1.63;1.10;;;24.00;63.40;;;;;;5036072;28;20910;-64
2021/01/27 02:31:18;;;;;;;1.20;1.10;;;24.00;63.50;;;;;;4993069;28;20454;-63
2021/01/27 02:34:20;;;;;;;1.30;1.20;;;24.00;63.70;;;;;;5036309;28;20455;-64
2021/01/27 02:36:51;;;;;;;1.30;1.13;;;24.00;63.40;;;;;;5022806;28;20448;-64
2021/01/27 02:39:23;;;;;;;1.00;0.90;;;24.00;63.40;;;;;;5036084;28;20432;-63
2021/01/27 02:41:56;;;;;;;1.00;0.87;;;24.00;63.10;;;;;;5035966;28;20480;-63
2021/01/27 02:47:52;;;;;;;1.07;0.97;;;24.00;63.40;;;;;;5035819;28;21009;-64
2021/01/27 02:50:24;;;;;;;1.30;1.20;;;23.90;63.40;;;;;;5036261;28;20926;-64
2021/01/27 02:52:56;;;;;;;1.30;1.20;;;24.10;63.30;;;;;;5035583;28;20427;-64
2021/01/27 02:55:29;;;;;;;1.10;1.00;;;23.90;63.20;;;;;;5035872;28;20455;-64
2021/01/27 02:58:01;;;;;;;1.30;1.20;;;23.90;63.10;;;;;;5035804;28;20454;-64
2021/01/27 03:00:32;;;;;;;1.17;1.00;;;24.10;63.10;;;;;;5035760;28;20466;-64
2021/01/27 03:03:05;;;;;;;1.30;0.90;;;24.00;63.30;;;;;;5035426;28;20478;-64
2021/01/27 03:05:34;;;;;;;1.17;1.07;;;23.90;63.00;;;;;;5035780;28;20787;-64
2021/01/27 03:08:07;;;;;;;1.40;1.00;;;23.90;63.40;;;;;;5035240;28;20451;-63
2021/01/27 03:10:39;;;;;;;1.30;1.20;;;23.90;62.90;;;;;;5035624;28;20428;-64
2021/01/27 03:13:05;;;;;;;1.40;1.30;;;23.90;63.10;;;;;;5035554;28;20831;-64
2021/01/27 03:15:31;;;;;;;1.17;1.00;;;23.90;63.10;;;;;;5035431;28;20444;-63
2021/01/27 03:18:00;;;;;;;3.03;1.00;;;23.90;62.90;;;;;;5035364;28;20452;-63
2021/01/27 03:20:32;;;;;;;1.50;1.40;;;23.90;62.90;;;;;;5035386;28;20488;-63
2021/01/27 03:23:12;;;;;;;1.10;0.90;;;23.90;62.80;;;;;;5035292;28;20485;-63
2021/01/27 03:25:49;;;;;;;1.30;1.00;;;23.90;63.00;;;;;;5035028;28;20433;-63
2021/01/27 03:28:21;;;;;;;1.10;0.90;;;23.90;63.00;;;;;;5034882;28;20474;-63
2021/01/27 03:30:48;;;;;;;1.10;1.00;;;23.90;63.00;;;;;;5034917;28;20914;-64
2021/01/27 03:33:18;;;;;;;1.20;1.10;;;23.90;62.90;;;;;;5035592;28;20440;-64
2021/01/27 03:35:48;;;;;;;1.00;0.80;;;23.90;62.90;;;;;;5034766;28;20448;-63
2021/01/27 03:38:21;;;;;;;1.10;1.00;;;23.90;63.20;;;;;;5035066;28;20451;-63
2021/01/27 03:40:50;;;;;;;1.30;1.10;;;23.90;63.00;;;;;;5034698;28;20427;-64
2021/01/27 03:43:23;;;;;;;3.27;1.10;;;23.90;62.80;;;;;;5034842;28;20520;-64
2021/01/27 03:45:52;;;;;;;1.93;1.10;;;23.90;63.00;;;;;;5034947;28;20433;-63
2021/01/27 03:48:24;;;;;;;1.20;1.00;;;23.90;62.80;;;;;;5034861;28;20444;-63
2021/01/27 03:50:54;;;;;;;1.10;1.00;;;23.90;62.90;;;;;;5035330;28;20432;-63
2021/01/27 03:53:25;;;;;;;1.00;0.80;;;23.90;63.10;;;;;;5034764;28;20507;-64
2021/01/27 03:55:56;;;;;;;1.10;1.00;;;23.90;63.00;;;;;;5034467;28;20440;-64
2021/01/27 03:58:25;;;;;;;1.10;1.00;;;23.90;62.50;;;;;;5034359;28;20908;-64
2021/01/27 04:00:59;;;;;;;1.10;1.00;;;23.90;62.50;;;;;;5035095;28;20453;-64
2021/01/27 04:03:25;;;;;;;1.10;1.00;;;23.90;62.70;;;;;;5034485;28;20479;-64
2021/01/27 04:05:51;;;;;;;1.30;0.80;;;23.90;62.40;;;;;;5034228;28;20934;-63
2021/01/27 04:08:18;;;;;;;1.20;0.93;;;23.90;62.50;;;;;;5034470;28;20946;-63
2021/01/27 04:10:45;;;;;;;1.20;0.90;;;23.90;62.60;;;;;;5035234;28;20501;-64
2021/01/27 04:13:11;;;;;;;1.20;0.93;;;23.90;62.60;;;;;;5034265;28;20446;-63
2021/01/27 04:15:37;;;;;;;1.20;1.10;;;23.90;62.80;;;;;;5033830;28;20440;-64
2021/01/27 04:18:04;;;;;;;1.23;1.07;;;23.90;62.70;;;;;;5034276;28;20447;-64
2021/01/27 04:20:30;;;;;;;1.37;1.00;;;23.90;62.60;;;;;;5034319;28;20859;-63
2021/01/27 04:22:57;;;;;;;1.10;0.87;;;23.90;62.40;;;;;;5034955;28;20566;-63
2021/01/27 04:25:23;;;;;;;1.07;0.93;;;23.90;62.60;;;;;;5033902;28;20451;-63
2021/01/27 04:27:50;;;;;;;1.20;0.90;;;23.90;62.10;;;;;;5033789;28;20821;-64
2021/01/27 04:30:20;;;;;;;1.30;1.17;;;23.90;62.30;;;;;;5033825;28;20436;-64
2021/01/27 04:32:46;;;;;;;1.10;1.00;;;23.90;62.40;;;;;;5034080;28;20447;-63
2021/01/27 04:35:14;;;;;;;1.00;0.80;;;23.90;62.30;;;;;;5034517;28;20451;-64
2021/01/27 04:37:41;;;;;;;1.10;0.90;;;23.90;62.30;;;;;;5033663;28;20449;-63
2021/01/27 04:40:09;;;;;;;1.00;0.80;;;23.90;62.60;;;;;;5034470;28;20543;-64
2021/01/27 04:42:35;;;;;;;1.10;0.97;;;23.90;62.50;;;;;;5033842;28;20488;-64
2021/01/27 04:45:06;;;;;;;1.07;0.80;;;23.80;62.00;;;;;;5033962;28;20502;-63
2021/01/27 04:47:40;;;;;;;1.30;0.90;;;23.90;62.20;;;;;;5033964;28;20830;-64
2021/01/27 04:50:12;;;;;;;1.03;0.90;;;23.90;62.30;;;;;;5033835;28;20440;-64
2021/01/27 04:52:50;;;;;;;1.13;1.03;;;23.90;62.40;;;;;;5033595;28;20423;-64
2021/01/27 04:55:37;;;;;;;1.30;0.90;;;23.90;62.80;;;;;;5033565;28;20434;-64
2021/01/27 04:58:20;;;;;;;1.10;0.80;;;23.90;62.50;;;;;;5033721;28;20507;-64
2021/01/27 05:01:03;;;;;;;1.00;0.90;;;23.90;62.80;;;;;;5033371;28;20439;-63
2021/01/27 05:03:55;;;;;;;1.10;0.80;;;23.90;62.50;;;;;;5033724;28;20499;-63
2021/01/27 05:06:24;;;;;;;1.20;1.00;;;23.90;62.90;;;;;;5033422;28;20433;-64
2021/01/27 05:09:00;;;;;;;1.20;1.00;;;23.80;62.40;;;;;;5033607;28;20496;-64
2021/01/27 05:11:28;;;;;;;1.20;1.00;;;23.90;62.80;;;;;;5033689;28;20773;-63
2021/01/27 05:13:57;;;;;;;1.47;0.80;;;23.90;62.80;;;;;;5033262;28;20450;-64
2021/01/27 05:16:26;;;;;;;1.30;1.00;;;23.90;62.50;;;;;;5033512;28;20449;-64
2021/01/27 05:18:56;;;;;;;1.10;0.90;;;23.90;62.60;;;;;;5033207;28;20989;-63
2021/01/27 05:21:26;;;;;;;1.10;0.90;;;23.90;62.70;;;;;;5033401;28;20464;-63
2021/01/27 05:23:53;;;;;;;1.00;0.80;;;23.90;62.80;;;;;;5033488;28;20448;-64
2021/01/27 05:26:21;;;;;;;1.00;0.80;;;23.90;62.70;;;;;;5035900;28;20479;-63
2021/01/27 05:28:55;;;;;;;1.10;0.80;;;23.90;62.50;;;;;;5037463;28;20428;-64
2021/01/27 05:31:21;;;;;;;1.20;1.00;;;23.90;62.50;;;;;;5037375;28;20447;-64
2021/01/27 05:33:50;;;;;;;1.37;1.10;;;23.90;62.60;;;;;;5037441;28;20470;-64
2021/01/27 05:36:22;;;;;;;1.00;0.80;;;23.90;62.50;;;;;;5038091;28;20445;-64
2021/01/27 05:38:48;;;;;;;1.07;0.90;;;23.90;62.80;;;;;;5037330;28;20438;-64
2021/01/27 05:41:21;;;;;;;1.03;0.80;;;23.90;62.60;;;;;;5036832;28;20453;-63
2021/01/27 05:43:49;;;;;;;1.10;0.80;;;23.90;62.50;;;;;;5037198;28;20447;-64
2021/01/27 05:46:27;;;;;;;1.00;0.70;;;23.90;62.50;;;;;;5037141;28;20448;-63
2021/01/27 05:48:55;;;;;;;1.00;0.80;;;23.90;62.50;;;;;;5037210;28;20439;-63
2021/01/27 05:51:30;;;;;;;1.03;0.93;;;23.90;62.50;;;;;;5037059;28;20454;-63
2021/01/27 05:53:57;;;;;;;1.00;0.90;;;23.90;62.60;;;;;;5036930;28;20451;-63
2021/01/27 05:56:24;;;;;;;1.00;0.83;;;23.90;62.80;;;;;;5036611;28;20446;-63
2021/01/27 05:59:00;;;;;;;0.97;0.80;;;23.90;62.70;;;;;;5036629;28;20474;-63
2021/01/27 06:01:37;;;;;;;1.00;0.80;;;23.90;62.80;;;;;;5036727;28;20448;-64
2021/01/27 06:04:17;;;;;;;0.90;0.70;;;23.90;62.60;;;;;;5036774;28;20504;-63
2021/01/27 06:06:57;;;;;;;1.40;1.00;;;23.90;62.80;;;;;;5036841;28;20849;-64
2021/01/27 06:09:40;;;;;;;1.00;0.70;;;23.90;62.70;;;;;;5036748;28;20436;-64
2021/01/27 06:12:12;;;;;;;1.00;0.80;;;24.00;62.80;;;;;;5036704;28;20457;-63
2021/01/27 06:14:38;;;;;;;1.00;0.80;;;23.90;62.50;;;;;;5036628;28;20837;-63
2021/01/27 06:17:23;;;;;;;0.90;0.70;;;23.90;62.60;;;;;;5036552;28;20474;-63
2021/01/27 06:20:03;;;;;;;1.00;0.80;;;23.90;62.70;;;;;;5036277;28;20437;-64
2021/01/27 06:22:58;;;;;;;0.90;0.70;;;23.90;62.90;;;;;;5036471;28;20528;-64
2021/01/27 06:25:38;;;;;;;0.97;0.70;;;23.90;62.80;;;;;;5022784;28;20451;-63
2021/01/27 06:28:21;;;;;;;1.00;0.87;;;23.90;63.00;;;;;;5035928;28;21025;-63
2021/01/27 06:30:56;;;;;;;1.10;0.80;;;23.90;63.00;;;;;;5036375;28;20448;-64
2021/01/27 06:33:56;;;;;;;1.00;0.90;;;23.90;63.10;;;;;;5036236;28;20458;-63
2021/01/27 06:37:07;;;;;;;0.93;0.70;;;23.90;62.90;;;;;;5035703;28;20455;-63
2021/01/27 06:40:03;;;;;;;1.00;0.70;;;23.90;63.10;;;;;;4999258;28;20463;-63
2021/01/27 06:43:05;;;;;;;1.30;0.80;;;23.90;63.20;;;;;;5001455;28;20845;-63
2021/01/27 06:45:40;;;;;;;0.90;0.60;;;23.90;63.20;;;;;;5026630;28;20466;-63
2021/01/27 06:48:20;;;;;;;1.10;0.93;;;23.90;63.10;;;;;;5035717;28;20944;-64
2021/01/27 06:50:56;;;;;;;0.90;0.70;;;23.90;63.00;;;;;;5035675;28;20976;-63
2021/01/27 06:53:51;;;;;;;1.00;0.83;;;23.90;63.20;;;;;;5035620;28;20429;-63
2021/01/27 06:56:49;;;;;;;1.03;0.80;;;23.90;63.30;;;;;;5035645;28;20526;-62
2021/01/27 07:00:13;;;;;;;1.00;0.80;;;23.90;63.40;;;;;;5035831;28;20432;-63
2021/01/27 07:03:05;;;;;;;0.90;0.80;;;23.90;63.50;;;;;;4955883;29;20499;-63
2021/01/27 07:06:24;;;;;;;0.90;0.70;;;23.90;63.40;;;;;;4955400;29;20443;-63
2021/01/27 07:09:22;;;;;;;1.00;0.77;;;23.90;63.50;;;;;;5033072;28;20535;-63
2021/01/27 07:11:58;;;;;;;1.10;0.80;;;23.90;63.30;;;;;;5035245;28;20444;-63
2021/01/27 07:18:18;;;;;;;0.90;0.70;;;23.90;63.20;;;;;;5035313;28;20453;-63
2021/01/27 07:20:49;;;;;;;0.90;0.70;;;23.90;63.30;;;;;;5035097;28;20911;-63
2021/01/27 07:23:23;;;;;;;1.10;0.80;;;23.90;63.30;;;;;;5035293;28;20546;-63
2021/01/27 07:26:00;;;;;;;1.00;0.80;;;23.90;63.30;;;;;;5035013;28;20430;-63
2021/01/27 07:28:35;;;;;;;1.10;0.70;;;23.90;63.00;;;;;;5035259;28;20812;-63
2021/01/27 07:31:12;;;;;;;1.07;0.70;;;23.90;63.20;;;;;;5035144;28;20788;-64
2021/01/27 07:33:45;;;;;;;1.00;0.80;;;23.90;63.20;;;;;;5035186;28;20822;-63
2021/01/27 07:36:33;;;;;;;1.00;0.80;;;23.90;63.30;;;;;;5035600;28;20432;-63
2021/01/27 07:39:02;;;;;;;0.90;0.70;;;23.90;63.40;;;;;;5035051;28;20435;-64
2021/01/27 07:41:45;;;;;;;1.10;0.90;;;23.90;63.40;;;;;;5034861;28;20821;-63
2021/01/27 07:47:54;;;;;;;0.90;0.70;;;23.90;63.30;;;;;;5034785;28;20986;-64
2021/01/27 07:50:23;;;;;;;0.90;0.70;;;23.90;63.30;;;;;;5033684;28;20915;-63
2021/01/27 07:52:57;;;;;;;1.20;0.80;;;23.90;63.00;;;;;;5034736;28;20440;-63
2021/01/27 07:55:27;;;;;;;0.90;0.70;;;23.90;63.30;;;;;;5034769;28;20802;-64
2021/01/27 07:58:03;;;;;;;1.00;0.80;;;23.90;63.50;;;;;;5034233;28;20453;-64
2021/01/27 08:00:33;;;;;;;1.10;0.67;;;23.90;63.10;;;;;;5034574;28;20505;-64
2021/01/27 08:03:26;;;;;;;1.00;0.80;;;23.90;63.20;;;;;;5034516;28;20489;-63
2021/01/27 08:06:00;;;;;;;0.90;0.70;;;23.90;63.00;;;;;;5034484;28;20442;-63
2021/01/27 08:08:26;;;;;;;1.00;0.80;;;23.90;63.30;;;;;;5034521;28;20427;-62
2021/01/27 08:10:54;;;;;;;1.00;0.80;;;23.90;63.30;;;;;;5034436;28;20447;-63
2021/01/27 08:13:38;;;;;;;0.97;0.80;;;23.90;63.40;;;;;;5034916;28;20448;-63
2021/01/27 08:16:27;;;;;;;0.90;0.70;;;24.00;63.40;;;;;;5034315;28;20446;-63
2021/01/27 08:19:24;;;;;;;1.00;0.80;;;24.00;63.60;;;;;;5034313;28;20478;-64
2021/01/27 08:21:56;;;;;;;0.90;0.70;;;24.00;63.40;;;;;;5033948;28;20528;-63
2021/01/27 08:24:54;;;;;;;1.50;1.00;;;23.90;63.00;;;;;;5034187;28;20443;-64
2021/01/27 08:27:32;;;;;;;1.00;0.80;;;24.00;63.30;;;;;;5018224;28;20482;-63
2021/01/27 08:30:29;;;;;;;1.00;0.77;;;23.90;63.50;;;;;;5033677;28;20456;-63
2021/01/27 08:33:39;;;;;;;1.10;0.87;;;23.90;63.40;;;;;;5033743;28;20435;-63
2021/01/27 08:36:08;;;;;;;1.03;0.70;;;23.90;63.40;;;;;;5034787;28;20550;-63
2021/01/27 08:38:38;;;;;;;0.90;0.60;;;23.90;63.40;;;;;;5034012;28;20448;-64
2021/01/27 08:41:09;;;;;;;1.00;0.80;;;23.90;63.50;;;;;;5033931;28;20476;-63
2021/01/27 08:43:39;;;;;;;1.00;0.70;;;23.90;63.50;;;;;;5033835;28;20475;-63
2021/01/27 08:46:42;;;;;;;0.90;0.70;;;23.90;63.50;;;;;;5033920;28;20439;-63
2021/01/27 08:49:09;;;;;;;0.90;0.60;;;24.00;63.50;;;;;;4954300;29;20479;-64
2021/01/27 08:51:48;;;;;;;1.00;0.80;;;23.90;63.40;;;;;;5018649;28;20448;-64
2021/01/27 08:54:29;;;;;;;1.20;0.93;;;24.00;63.50;;;;;;5033893;28;20452;-63
2021/01/27 08:57:26;;;;;;;1.00;0.90;;;23.90;63.30;;;;;;5033807;28;20428;-63
2021/01/27 09:00:09;;;;;;;1.10;1.00;;;23.90;63.40;;;;;;5033452;28;20436;-64
2021/01/27 09:02:49;;;;;;;1.30;1.20;;;23.90;63.50;;;;;;5033637;28;20483;-64
2021/01/27 09:05:33;;;;;;;2.90;1.20;;;23.90;63.60;;;;;;5033420;28;20924;-63
2021/01/27 09:08:01;;;;;;;1.07;0.97;;;23.90;64.30;;;;;;5033690;28;20437;-64
2021/01/27 09:10:30;;;;;;;1.37;1.10;;;23.90;64.60;;;;;;5033555;28;20443;-65
2021/01/27 09:12:57;;;;;;;1.23;0.90;;;23.90;64.50;;;;;;5033231;28;20444;-64
2021/01/27 09:15:25;;;;;;;1.20;1.10;;;23.80;64.40;;;;;;5033218;28;20447;-64
2021/01/27 09:21:17;;;;;;;1.43;1.33;;;23.90;64.80;;;;;;5033383;28;20408;-63
2021/01/27 09:23:46;;;;;;;2.00;1.10;;;23.90;65.10;;;;;;5034159;28;20491;-63
2021/01/27 09:26:14;;;;;;;1.10;1.00;;;23.90;65.30;;;;;;5033222;28;20512;-66
2021/01/27 09:28:41;;;;;;;3.03;1.20;;;23.90;65.30;;;;;;5033322;28;20437;-64
2021/01/27 09:31:13;;;;;;;1.33;1.20;;;23.90;65.50;;;;;;5033282;28;20447;-68
2021/01/27 09:33:39;;;;;;;1.30;1.10;;;23.90;65.40;;;;;;5034184;28;20498;-63
2021/01/27 09:36:09;;;;;;;1.97;1.20;;;23.90;65.60;;;;;;5033058;28;20443;-63
2021/01/27 09:38:36;;;;;;;1.20;1.10;;;23.90;65.60;;;;;;5033219;28;20854;-63
2021/01/27 09:41:08;;;;;;;1.30;1.20;;;23.90;65.60;;;;;;5033198;28;20439;-64
2021/01/27 09:43:37;;;;;;;1.53;1.10;;;23.90;65.60;;;;;;5033215;28;20479;-64
2021/01/27 09:46:25;;;;;;;1.10;1.00;;;23.90;65.60;;;;;;5033212;28;20451;-65
2021/01/27 09:48:54;;;;;;;1.17;0.97;;;23.90;65.70;;;;;;5033214;28;20439;-64
2021/01/27 09:51:21;;;;;;;2.20;1.50;;;23.90;65.70;;;;;;5032838;28;20942;-68
2021/01/27 09:53:48;;;;;;;2.50;1.10;;;23.90;65.20;;;;;;5033028;28;20439;-68
2021/01/27 09:56:17;;;;;;;1.77;1.20;;;23.90;65.20;;;;;;5033073;28;20444;-66
2021/01/27 09:58:44;;;;;;;3.97;1.07;;;23.90;65.50;;;;;;5033085;28;20806;-67
2021/01/27 10:01:17;;;;;;;1.40;1.30;;;23.90;65.40;;;;;;5032835;28;20447;-65
2021/01/27 10:03:45;;;;;;;2.37;1.53;;;24.00;65.60;;;;;;5033064;28;20542;-65
2021/01/27 10:06:34;;;;;;;1.30;1.20;;;24.00;65.90;;;;;;5032756;28;20966;-64
2021/01/27 10:09:05;;;;;;;2.30;1.07;;;24.00;65.40;;;;;;5032928;28;20439;-62
2021/01/27 10:11:33;;;;;;;1.10;1.00;;;24.00;65.90;;;;;;5032960;28;20435;-63
2021/01/27 10:14:02;;;;;;;1.17;1.03;;;24.00;65.80;;;;;;5036329;28;20447;-62
2021/01/27 10:16:29;;;;;;;1.00;0.90;;;24.00;65.70;;;;;;5036588;28;20502;-60
2021/01/27 10:19:02;;;;;;;4.30;1.53;;;24.00;65.80;;;;;;5036133;28;20964;-63
2021/01/27 10:21:28;;;;;;;4.33;1.50;;;24.00;66.20;;;;;;5036510;28;20467;-61
2021/01/27 10:27:20;;;;;;;1.57;1.10;;;24.00;65.90;;;;;;5034132;28;20526;-62
2021/01/27 10:29:47;;;;;;;3.40;1.60;;;24.00;65.90;;;;;;5036242;28;20432;-62
2021/01/27 10:32:24;;;;;;;1.60;1.30;;;24.00;65.90;;;;;;5036294;28;20501;-61
2021/01/27 10:34:51;;;;;;;4.20;1.57;;;24.10;65.90;;;;;;5035903;28;20479;-61
2021/01/27 10:37:30;;;;;;;1.70;1.60;;;24.10;66.00;;;;;;5036146;28;20451;-64
2021/01/27 10:40:13;;;;;;;1.70;1.40;;;24.10;65.90;;;;;;5036160;28;20458;-63
2021/01/27 10:42:41;;;;;;;3.27;1.30;;;24.20;65.90;;;;;;5035990;28;20557;-63
2021/01/27 10:45:23;;;;;;;4.47;1.40;;;24.10;66.00;;;;;;5035783;28;20497;-61
2021/01/27 10:48:01;;;;;;;1.40;1.07;;;24.10;64.90;;;;;;5035683;28;20436;-60
2021/01/27 10:50:28;;;;;;;3.43;1.53;;;24.10;64.60;;;;;;5035863;28;20792;-62
2021/01/27 10:52:56;;;;;;;3.20;1.20;;;24.10;64.70;;;;;;5035835;28;20466;-60
2021/01/27 10:55:26;;;;;;;1.63;1.20;;;24.00;64.80;;;;;;5035522;28;20454;-66
2021/01/27 10:58:02;;;;;;;2.43;1.50;;;24.10;65.50;;;;;;5035789;28;20783;-62
2021/01/27 11:00:29;;;;;;;3.10;1.10;;;24.10;65.50;;;;;;5035728;28;20437;-62
2021/01/27 11:02:55;;;;;;;2.50;1.30;;;24.10;65.60;;;;;;5035626;28;20549;-61
2021/01/27 11:05:21;;;;;;;1.23;1.10;;;24.10;65.70;;;;;;5035701;28;20453;-61
2021/01/27 11:07:48;;;;;;;2.80;1.50;;;24.10;65.70;;;;;;5035594;28;20441;-63
2021/01/27 11:10:14;;;;;;;4.03;1.33;;;24.10;65.80;;;;;;5035500;28;20456;-62
2021/01/27 11:12:40;;;;;;;4.90;1.20;;;24.10;65.80;;;;;;5035361;28;20441;-62
2021/01/27 11:15:09;;;;;;;6.17;1.43;;;24.10;65.70;;;;;;5035461;28;20444;-60
2021/01/27 11:17:35;;;;;;;7.40;1.40;;;24.10;65.60;;;;;;5035412;28;20456;-62
2021/01/27 11:20:02;;;;;;;1.87;1.03;;;24.10;65.70;;;;;;5035485;28;20447;-62
2021/01/27 11:22:28;;;;;;;2.90;1.30;;;24.10;65.80;;;;;;5035283;28;20545;-64
2021/01/27 11:28:17;;;;;;;1.20;1.10;;;24.10;66.20;;;;;;5025422;28;20487;-62
2021/01/27 11:30:44;;;;;;;3.60;1.10;;;24.10;66.30;;;;;;5035191;28;20452;-62
2021/01/27 11:33:11;;;;;;;1.10;1.00;;;24.10;66.30;;;;;;5034816;28;20459;-62
2021/01/27 11:35:37;;;;;;;4.37;1.10;;;24.10;66.20;;;;;;5035040;28;20606;-62
2021/01/27 11:38:04;;;;;;;3.10;1.10;;;24.10;66.10;;;;;;5035065;28;20448;-60
2021/01/27 11:40:30;;;;;;;3.93;1.40;;;24.10;66.20;;;;;;5035070;28;20456;-61
2021/01/27 11:42:57;;;;;;;2.03;1.47;;;24.10;66.30;;;;;;5035017;28;20488;-61
2021/01/27 11:45:24;;;;;;;2.37;1.10;;;24.10;66.50;;;;;;5034623;28;20453;-61
2021/01/27 11:47:51;;;;;;;2.70;1.60;;;24.10;66.40;;;;;;5034586;28;20445;-61
2021/01/27 11:50:19;;;;;;;5.60;2.80;;;24.10;66.30;;;;;;5034744;28;20451;-61
2021/01/27 11:52:47;;;;;;;6.17;3.13;;;24.10;65.80;;;;;;5034774;28;20476;-61
2021/01/27 11:55:14;;;;;;;7.73;4.33;;;24.10;65.40;;;;;;5034685;28;20444;-61
2021/01/27 11:57:40;;;;;;;11.50;5.40;;;24.10;65.50;;;;;;5034356;28;20966;-61
2021/01/27 12:00:08;;;;;;;11.83;5.80;;;24.10;66.00;;;;;;5034637;28;20814;-61
2021/01/27 12:02:34;;;;;;;20.30;6.27;;;24.00;66.10;;;;;;5034137;28;21025;-61
2021/01/27 12:05:02;;;;;;;12.70;4.27;;;24.00;66.10;;;;;;5034226;28;20940;-61
2021/01/27 12:07:28;;;;;;;11.63;4.77;;;24.00;65.90;;;;;;5034188;28;21018;-61
2021/01/27 12:09:54;;;;;;;7.33;4.47;;;24.00;66.10;;;;;;5034491;28;20791;-60
2021/01/27 12:12:21;;;;;;;5.90;4.00;;;24.00;66.30;;;;;;5034370;28;20436;-61
2021/01/27 12:14:47;;;;;;;7.87;4.57;;;24.00;66.40;;;;;;5034442;28;20447;-62
2021/01/27 12:17:13;;;;;;;10.03;4.57;;;24.00;66.40;;;;;;5034308;28;20439;-61
2021/01/27 12:19:40;;;;;;;9.13;5.00;;;24.00;66.50;;;;;;5033756;28;20451;-60
2021/01/27 12:22:07;;;;;;;10.80;4.70;;;24.00;66.40;;;;;;5034041;28;20449;-60
2021/01/27 12:24:33;;;;;;;5.20;4.20;;;24.00;66.40;;;;;;5034174;28;20801;-61
2021/01/27 12:26:59;;;;;;;14.60;4.97;;;24.00;66.60;;;;;;5034134;28;20450;-61
2021/01/27 12:29:26;;;;;;;9.80;4.67;;;24.00;66.60;;;;;;5033627;28;20532;-61
2021/01/27 12:31:52;;;;;;;7.87;4.60;;;23.90;66.50;;;;;;5034067;28;20499;-61
2021/01/27 12:37:42;;;;;;;5.57;4.50;;;24.00;66.50;;;;;;5033914;28;20494;-61
2021/01/27 12:40:12;;;;;;;9.00;5.03;;;23.90;66.50;;;;;;5033946;28;20498;-61
2021/01/27 12:42:38;;;;;;;15.53;5.33;;;23.90;66.60;;;;;;5033861;28;20886;-60
2021/01/27 12:45:06;;;;;;;8.87;4.90;;;23.90;66.70;;;;;;5033614;28;20455;-60
2021/01/27 12:47:32;;;;;;;7.17;4.73;;;23.90;66.70;;;;;;5033826;28;20918;-61
2021/01/27 12:49:59;;;;;;;10.00;4.27;;;23.90;66.70;;;;;;5033836;28;20502;-61
2021/01/27 12:52:25;;;;;;;9.43;5.17;;;23.90;66.70;;;;;;5033493;28;20448;-60
2021/01/27 12:54:52;;;;;;;8.20;4.70;;;23.90;66.70;;;;;;5033429;28;20472;-61
2021/01/27 12:57:18;;;;;;;7.30;4.83;;;23.90;66.70;;;;;;5034192;28;20500;-61
2021/01/27 12:59:44;;;;;;;6.43;4.87;;;23.90;66.80;;;;;;5033672;28;20441;-60
2021/01/27 13:02:10;;;;;;;8.13;5.60;;;23.90;66.80;;;;;;5033320;28;20443;-60
2021/01/27 13:04:37;;;;;;;11.73;5.10;;;23.90;66.90;;;;;;5033685;28;20452;-61
2021/01/27 13:07:04;;;;;;;11.97;5.27;;;23.90;66.80;;;;;;5033311;28;20452;-61
2021/01/27 13:09:30;;;;;;;6.53;4.63;;;23.90;66.80;;;;;;5033673;28;20793;-61
2021/01/27 13:11:57;;;;;;;6.00;4.80;;;23.90;66.70;;;;;;5034054;28;20506;-61
2021/01/27 13:14:23;;;;;;;5.77;4.50;;;23.90;66.80;;;;;;5033563;28;20447;-61
2021/01/27 13:16:50;;;;;;;9.27;4.70;;;23.90;66.70;;;;;;5033495;28;20787;-61
2021/01/27 13:19:17;;;;;;;7.47;4.33;;;23.90;66.80;;;;;;5033474;28;20449;-60
2021/01/27 13:21:44;;;;;;;8.33;4.50;;;23.90;66.80;;;;;;5033459;28;20448;-61
2021/01/27 13:24:11;;;;;;;6.93;4.73;;;23.90;66.90;;;;;;5033344;28;20499;-60
2021/01/27 13:26:37;;;;;;;7.87;4.50;;;23.90;66.80;;;;;;5033175;28;20447;-60
2021/01/27 13:29:04;;;;;;;13.00;4.83;;;23.90;66.80;;;;;;5033000;28;20488;-60
2021/01/27 13:31:31;;;;;;;6.80;5.30;;;23.90;66.90;;;;;;5033372;28;20451;-60
2021/01/27 13:33:57;;;;;;;4.57;4.07;;;24.00;66.90;;;;;;5033039;28;20958;-60
2021/01/27 13:36:24;;;;;;;10.97;4.37;;;24.00;67.00;;;;;;5032999;28;20452;-60